KBOW Airport (Bartow Executive) Information

FAA: BOW - ICAO: KBOW

KBOW Airport Location

State Florida
County Polk
City Bartow
KBOW Airport is 4 miles northeast of Bartow, FL.
Latitude 27-56-36.1000N
Longitude 081-47-00.3000W
Elevation 124ft

KBOW Airport METARs

METAR KBOW 121550Z 11006KT 10SM BKN030 31/23 A3008
Altimeter 30.08"
Temperature 31.0°C (87.8°F)
Wind 110° at 6KT
Clouds broken at 3,000ft
Visibility 10.0mi
Time observed: 2022-08-12T15:50:00Z

KBOW Airport Details

Status Operational
Activation February 1944
Ownership Public
Usage Public
Chart MIAMI
ATC on-site Yes
Beacon schedule sunset-sunrise
Beacon color clear green

KBOW Airport Contacts

Owner BARTOW MUNI ARPT DVLPMNT AUTH
Owner address PO BOX 650, BARTOW, FL 33831-0650
Owner phone 863-533-1195
Manager REDDOCH WILLIAMS
Manager address 251 BEACHVIEW DRIVE, FT WALTON BEACH, FL 32547
Manager phone (850) 621-5645

KBOW Airport (Bartow Executive) Radio Frequencies

KBOW (Airport) Radio Frequencies

UNICOM 122.95
Common traffic advisory frequency (CTAF) 121.2